Time;durP1;ratioP1;P1;durP2;ratioP2;P2;SDS_P1;SDS_P2;PMS_P1;PMS_P2;Temp;Humidity;BMP_temperature;BMP_pressure;BME280_temperature;BME280_humidity;BME280_pressure;Samples;Min_cycle;Max_cycle;Signal;HPM_P1;HPM_P2
2021/12/13 00:02:04;;;;;;;60.67;20.77;;;10.90;99.90;;;;;;5076065;28;20442;-77
2021/12/13 00:04:36;;;;;;;56.78;17.52;;;10.90;99.90;;;;;;5076042;28;20353;-77
2021/12/13 00:07:12;;;;;;;54.63;18.45;;;10.90;99.90;;;;;;5094243;28;20487;-76
2021/12/13 00:09:45;;;;;;;61.22;19.83;;;10.90;99.90;;;;;;5094518;28;20502;-76
2021/12/13 00:12:11;;;;;;;62.75;20.23;;;10.90;99.90;;;;;;5094181;28;20028;-77
2021/12/13 00:14:49;;;;;;;56.47;18.92;;;10.90;99.90;;;;;;5094390;28;20432;-76
2021/12/13 00:17:21;;;;;;;56.05;17.63;;;10.90;99.90;;;;;;5094378;28;20233;-76
2021/12/13 00:20:05;;;;;;;51.42;16.92;;;10.90;99.90;;;;;;5094259;28;20027;-75
2021/12/13 00:22:38;;;;;;;41.92;15.00;;;10.90;99.90;;;;;;5076328;28;20020;-75
2021/12/13 00:25:10;;;;;;;62.47;18.60;;;10.90;99.90;;;;;;5093683;28;20024;-76
2021/12/13 00:27:46;;;;;;;51.67;16.17;;;10.90;99.90;;;;;;5094228;28;20035;-76
2021/12/13 00:30:26;;;;;;;44.35;15.98;;;10.90;99.90;;;;;;5075455;28;20447;-74
2021/12/13 00:33:29;;;;;;;50.60;15.87;;;10.90;99.90;;;;;;5093713;28;20095;-76
2021/12/13 00:36:05;;;;;;;54.05;16.15;;;10.90;99.90;;;;;;5075259;28;20273;-75
2021/12/13 00:38:39;;;;;;;50.38;16.70;;;10.80;99.90;;;;;;5075799;28;20024;-75
2021/12/13 00:41:11;;;;;;;53.38;16.27;;;10.90;99.90;;;;;;5093454;28;20453;-75
2021/12/13 00:43:45;;;;;;;47.53;16.60;;;10.90;99.90;;;;;;5093724;28;20032;-75
2021/12/13 00:46:14;;;;;;;55.28;15.75;;;10.90;99.90;;;;;;5093404;28;20020;-76
2021/12/13 00:48:44;;;;;;;49.05;14.00;;;10.90;99.90;;;;;;5093644;28;20031;-75
2021/12/13 00:51:20;;;;;;;45.92;15.25;;;10.90;99.90;;;;;;5074756;28;20039;-76
2021/12/13 00:53:48;;;;;;;47.85;14.88;;;10.90;99.90;;;;;;5093830;28;20110;-76
2021/12/13 00:56:47;;;;;;;46.72;14.07;;;10.80;99.90;;;;;;5074981;28;20047;-75
2021/12/13 00:59:28;;;;;;;42.13;15.15;;;10.90;99.90;;;;;;5077764;28;20012;-75
2021/12/13 01:02:00;;;;;;;38.60;13.43;;;10.90;99.90;;;;;;5093428;28;20052;-76
2021/12/13 01:04:51;;;;;;;43.35;13.82;;;10.90;99.90;;;;;;5093108;28;20032;-75
2021/12/13 01:07:32;;;;;;;51.05;14.10;;;10.90;99.90;;;;;;5074730;28;20020;-76
2021/12/13 01:10:35;;;;;;;42.67;11.60;;;10.80;99.90;;;;;;5092795;28;20376;-76
2021/12/13 01:13:03;;;;;;;40.00;12.18;;;10.90;99.90;;;;;;5092722;28;20031;-76
2021/12/13 01:15:37;;;;;;;46.58;14.73;;;10.80;99.90;;;;;;5075023;28;20028;-75
2021/12/13 01:18:27;;;;;;;48.08;13.95;;;10.80;99.90;;;;;;5092754;28;20016;-75
2021/12/13 01:21:30;;;;;;;50.17;16.02;;;10.80;99.90;;;;;;5074562;28;20028;-75
2021/12/13 01:24:05;;;;;;;44.45;12.93;;;10.80;99.90;;;;;;5092082;28;20523;-76
2021/12/13 01:26:39;;;;;;;41.00;14.90;;;10.70;99.90;;;;;;5074633;28;20024;-76
2021/12/13 01:29:17;;;;;;;44.58;13.57;;;10.80;99.90;;;;;;5073990;28;20123;-76
2021/12/13 01:31:48;;;;;;;37.75;11.93;;;10.80;99.90;;;;;;5092865;28;20070;-76
2021/12/13 01:34:17;;;;;;;41.50;14.60;;;10.80;99.90;;;;;;5092405;28;20085;-76
2021/12/13 01:36:55;;;;;;;46.75;16.23;;;10.80;99.90;;;;;;5074472;28;20102;-76
2021/12/13 01:39:24;;;;;;;30.48;10.38;;;10.80;99.90;;;;;;5092322;28;20027;-77
2021/12/13 01:41:59;;;;;;;55.78;15.30;;;10.80;99.90;;;;;;5074813;28;20376;-76
2021/12/13 01:44:29;;;;;;;51.25;16.35;;;10.80;99.90;;;;;;5074533;28;20361;-76
2021/12/13 01:47:00;;;;;;;54.97;16.63;;;10.70;99.90;;;;;;5074537;28;20384;-76
2021/12/13 01:49:52;;;;;;;53.00;16.55;;;10.70;99.90;;;;;;5074692;28;20020;-77
2021/12/13 01:52:25;;;;;;;61.42;16.98;;;10.70;99.90;;;;;;5073980;28;20546;-76
2021/12/13 01:54:52;;;;;;;43.15;15.48;;;10.80;99.90;;;;;;5074540;28;20024;-76
2021/12/13 01:57:25;;;;;;;37.50;13.00;;;10.80;99.90;;;;;;5091915;28;20138;-77
2021/12/13 02:00:07;;;;;;;37.45;13.60;;;10.70;99.90;;;;;;5074574;28;20122;-77
2021/12/13 02:02:38;;;;;;;59.50;18.58;;;10.70;99.90;;;;;;5092648;28;20078;-76
2021/12/13 02:05:08;;;;;;;63.92;18.85;;;10.70;99.90;;;;;;5073646;28;20111;-76
2021/12/13 02:07:40;;;;;;;60.80;17.85;;;10.70;99.90;;;;;;5074109;28;20027;-76
2021/12/13 02:10:08;;;;;;;;;;;10.60;99.90;;;;;;5092532;28;20055;-76
2021/12/13 02:12:36;;;;;;;57.75;16.30;;;10.70;99.90;;;;;;5074320;28;19950;-76
2021/12/13 02:17:49;;;;;;;55.80;17.67;;;10.70;99.90;;;;;;5092402;28;20085;-76
2021/12/13 02:20:27;;;;;;;59.60;18.67;;;10.70;99.90;;;;;;5091778;28;20020;-76
2021/12/13 02:22:55;;;;;;;37.40;12.88;;;10.70;99.90;;;;;;5091507;28;20020;-76
2021/12/13 02:25:21;;;;;;;72.78;19.48;;;10.70;99.90;;;;;;5091740;28;20471;-76
2021/12/13 02:27:59;;;;;;;65.75;18.38;;;10.70;99.90;;;;;;5074014;28;20025;-76
2021/12/13 02:30:53;;;;;;;52.50;15.43;;;10.70;99.90;;;;;;5091711;28;20020;-76
2021/12/13 02:33:33;;;;;;;64.13;19.92;;;10.70;99.90;;;;;;5079205;28;20155;-76
2021/12/13 02:36:04;;;;;;;66.80;20.10;;;10.70;99.90;;;;;;5091996;28;20430;-76
2021/12/13 02:38:31;;;;;;;62.10;18.85;;;10.70;99.90;;;;;;5074113;28;20357;-76
2021/12/13 02:40:57;;;;;;;74.28;22.85;;;10.70;99.90;;;;;;5093395;28;20032;-76
2021/12/13 02:43:26;;;;;;;76.75;23.50;;;10.70;99.90;;;;;;5095610;28;20020;-76
2021/12/13 02:45:55;;;;;;;80.03;22.25;;;10.70;99.90;;;;;;5077883;28;20029;-76
2021/12/13 02:48:47;;;;;;;67.25;20.15;;;10.70;99.90;;;;;;5077306;28;20028;-76
2021/12/13 02:51:24;;;;;;;66.70;21.23;;;10.70;99.90;;;;;;5081879;28;20460;-76
2021/12/13 02:54:12;;;;;;;63.65;20.67;;;10.70;99.90;;;;;;5077946;28;20039;-76
2021/12/13 02:56:49;;;;;;;71.55;22.30;;;10.70;99.90;;;;;;5094870;28;20042;-77
2021/12/13 02:59:16;;;;;;;62.25;18.98;;;10.70;99.90;;;;;;5077017;28;20476;-76
2021/12/13 03:01:51;;;;;;;61.88;20.88;;;10.60;99.90;;;;;;5095687;28;20024;-77
2021/12/13 03:04:20;;;;;;;75.68;23.13;;;10.70;99.90;;;;;;5095408;28;20064;-77
2021/12/13 03:06:57;;;;;;;64.95;18.70;;;10.70;99.90;;;;;;5055467;28;20033;-76
2021/12/13 03:09:25;;;;;;;52.13;17.27;;;10.70;99.90;;;;;;5055207;28;20028;-76
2021/12/13 03:11:54;;;;;;;55.33;17.50;;;10.70;99.90;;;;;;5054343;28;20031;-76
2021/12/13 03:14:28;;;;;;;58.22;18.23;;;10.70;99.90;;;;;;5054880;28;20105;-76
2021/12/13 03:17:08;;;;;;;50.10;19.00;;;10.70;99.90;;;;;;5054264;28;20059;-76
2021/12/13 03:19:39;;;;;;;63.53;21.00;;;10.60;99.90;;;;;;5057581;28;20081;-76
2021/12/13 03:22:56;;;;;;;59.03;19.15;;;10.60;99.90;;;;;;5059536;28;20121;-77
2021/12/13 03:25:40;;;;;;;46.95;16.70;;;10.60;99.90;;;;;;5054384;28;20037;-76
2021/12/13 03:28:24;;;;;;;59.65;19.20;;;10.60;99.90;;;;;;5055149;28;20029;-77
2021/12/13 03:31:05;;;;;;;54.28;17.15;;;10.60;99.90;;;;;;5054984;28;20104;-76
2021/12/13 03:33:33;;;;;;;;;;;10.60;99.90;;;;;;5054180;28;20074;-76
2021/12/13 03:36:05;;;;;;;46.03;16.92;;;10.60;99.90;;;;;;5053516;28;20426;-75
2021/12/13 03:38:35;;;;;;;62.35;19.35;;;10.60;99.90;;;;;;5054466;28;20025;-75
2021/12/13 03:41:05;;;;;;;53.63;17.60;;;10.60;99.90;;;;;;5053533;28;20432;-75
2021/12/13 03:43:53;;;;;;;47.97;17.58;;;10.50;99.90;;;;;;5053941;28;20362;-75
2021/12/13 03:46:22;;;;;;;34.90;12.98;;;10.50;99.90;;;;;;5053048;28;20078;-76
2021/12/13 03:48:51;;;;;;;43.03;14.38;;;10.50;99.90;;;;;;5053128;28;20025;-75
2021/12/13 03:51:20;;;;;;;42.22;15.50;;;10.50;99.90;;;;;;5052834;28;20025;-75
2021/12/13 03:53:50;;;;;;;46.05;16.75;;;10.50;99.90;;;;;;5052671;28;20439;-75
2021/12/13 03:56:20;;;;;;;53.65;17.55;;;10.50;99.90;;;;;;5052650;28;20032;-75
2021/12/13 03:58:49;;;;;;;45.20;16.17;;;10.50;99.90;;;;;;5053154;28;20029;-75
2021/12/13 04:01:17;;;;;;;49.30;15.90;;;10.50;99.90;;;;;;5053953;28;20056;-75
2021/12/13 04:03:44;;;;;;;48.20;16.48;;;10.50;99.90;;;;;;5054288;28;20129;-76
2021/12/13 04:06:15;;;;;;;34.55;13.90;;;10.50;99.90;;;;;;5085399;28;20044;-76
2021/12/13 04:08:42;;;;;;;32.40;13.93;;;10.40;99.90;;;;;;5094606;28;20031;-75
2021/12/13 04:11:10;;;;;;;43.45;15.65;;;10.50;99.90;;;;;;5076155;28;20054;-75
2021/12/13 04:13:48;;;;;;;39.67;14.93;;;10.40;99.90;;;;;;5075828;28;20048;-75
2021/12/13 04:17:02;;;;;;;44.03;15.32;;;10.40;99.90;;;;;;5094413;28;20444;-76
2021/12/13 04:19:46;;;;;;;46.20;15.00;;;10.40;99.90;;;;;;5075826;28;20043;-75
2021/12/13 04:22:13;;;;;;;39.30;14.10;;;10.40;99.90;;;;;;5093848;28;20024;-76
2021/12/13 04:24:44;;;;;;;37.83;13.50;;;10.40;99.90;;;;;;5094167;28;20028;-75
2021/12/13 04:27:15;;;;;;;;;;;10.40;99.90;;;;;;5094751;28;20024;-75
2021/12/13 04:29:41;;;;;;;38.75;14.35;;;10.40;99.90;;;;;;5076082;28;20275;-76
2021/12/13 04:32:19;;;;;;;40.58;13.23;;;10.40;99.90;;;;;;5094164;28;20028;-76
2021/12/13 04:34:46;;;;;;;30.35;11.43;;;10.40;99.90;;;;;;5075932;28;20081;-76
2021/12/13 04:37:22;;;;;;;38.78;13.02;;;10.40;99.90;;;;;;5093580;28;20024;-77
2021/12/13 04:39:53;;;;;;;38.00;13.57;;;10.40;99.90;;;;;;5093913;28;20024;-76
2021/12/13 04:42:22;;;;;;;41.15;13.68;;;10.40;99.90;;;;;;5093381;28;20069;-76
2021/12/13 04:44:56;;;;;;;40.28;14.63;;;10.40;99.90;;;;;;5093711;28;20058;-76
2021/12/13 04:47:36;;;;;;;40.28;13.38;;;10.40;99.90;;;;;;5093596;28;20051;-76
2021/12/13 04:50:07;;;;;;;43.58;14.23;;;10.40;99.90;;;;;;5075652;28;20028;-76
2021/12/13 04:52:33;;;;;;;40.30;13.68;;;10.40;99.90;;;;;;5075088;28;20257;-76
2021/12/13 04:55:00;;;;;;;38.15;14.07;;;10.40;99.90;;;;;;5075319;28;20032;-76
2021/12/13 04:57:27;;;;;;;36.03;13.05;;;10.40;99.90;;;;;;5092859;28;20047;-76
2021/12/13 04:59:59;;;;;;;22.60;8.63;;;10.40;99.90;;;;;;5075331;28;20027;-76
2021/12/13 05:02:27;;;;;;;49.80;14.65;;;10.40;99.90;;;;;;5093197;28;20027;-76
2021/12/13 05:04:59;;;;;;;36.45;12.60;;;10.40;99.90;;;;;;5092458;28;20067;-76
2021/12/13 05:07:26;;;;;;;37.83;12.68;;;10.40;99.90;;;;;;5093344;28;20209;-77
2021/12/13 05:09:53;;;;;;;43.70;13.82;;;10.40;99.90;;;;;;5075216;28;20452;-77
2021/12/13 05:12:22;;;;;;;46.75;15.00;;;10.40;99.90;;;;;;5092839;28;20028;-76
2021/12/13 05:14:54;;;;;;;48.75;14.23;;;10.40;99.90;;;;;;5075092;28;20024;-75
2021/12/13 05:17:44;;;;;;;30.98;9.93;;;10.40;99.90;;;;;;5092707;28;20023;-76
2021/12/13 05:20:09;;;;;;;42.95;14.35;;;10.40;99.90;;;;;;5093209;28;20020;-75
2021/12/13 05:22:51;;;;;;;33.00;10.90;;;10.40;99.90;;;;;;5092632;28;20020;-75
2021/12/13 05:25:29;;;;;;;50.58;14.73;;;10.40;99.90;;;;;;5074426;28;20043;-77
2021/12/13 05:28:06;;;;;;;38.15;11.30;;;10.40;99.90;;;;;;5093107;28;20031;-76
2021/12/13 05:30:34;;;;;;;46.33;14.50;;;10.40;99.90;;;;;;5092644;28;20024;-77
2021/12/13 05:33:07;;;;;;;45.58;15.30;;;10.40;99.90;;;;;;5074821;28;20073;-76
2021/12/13 05:35:39;;;;;;;42.88;14.48;;;10.40;99.90;;;;;;5092551;28;20486;-76
2021/12/13 05:38:10;;;;;;;62.20;16.35;;;10.40;99.90;;;;;;5093054;28;20063;-77
2021/12/13 05:40:44;;;;;;;42.90;13.57;;;10.40;99.90;;;;;;5092499;28;20560;-77
2021/12/13 05:43:45;;;;;;;48.05;14.48;;;10.40;99.90;;;;;;5074842;28;20031;-76
2021/12/13 05:46:31;;;;;;;47.70;14.70;;;10.40;99.90;;;;;;5072839;28;20044;-76
2021/12/13 05:49:02;;;;;;;37.67;10.65;;;10.40;99.90;;;;;;5092799;28;20028;-77
2021/12/13 05:51:41;;;;;;;42.85;13.50;;;10.40;99.90;;;;;;5091905;28;20408;-77
2021/12/13 05:54:13;;;;;;;59.78;14.43;;;10.40;99.90;;;;;;5092684;28;20024;-77
2021/12/13 05:56:46;;;;;;;47.78;13.38;;;10.40;99.90;;;;;;5091785;28;20054;-78
2021/12/13 05:59:34;;;;;;;42.47;14.00;;;10.40;99.90;;;;;;5073751;28;20036;-77
2021/12/13 06:02:07;;;;;;;47.33;14.27;;;10.40;99.90;;;;;;5073937;28;20028;-77
2021/12/13 06:04:42;;;;;;;45.67;13.50;;;10.40;99.90;;;;;;5091764;28;20028;-77
2021/12/13 06:07:22;;;;;;;43.25;13.68;;;10.30;99.90;;;;;;5074524;28;20027;-77
2021/12/13 06:09:57;;;;;;;49.53;15.48;;;10.30;99.90;;;;;;5091974;28;20093;-77
2021/12/13 06:12:51;;;;;;;46.42;13.68;;;10.30;99.90;;;;;;5089454;28;20062;-77
2021/12/13 06:15:17;;;;;;;42.30;12.10;;;10.30;99.90;;;;;;5090007;28;20069;-77
2021/12/13 06:17:56;;;;;;;45.15;13.70;;;10.30;99.90;;;;;;5091589;28;20020;-77
2021/12/13 06:20:28;;;;;;;44.92;13.00;;;10.30;99.90;;;;;;5091918;28;20024;-78
2021/12/13 06:23:08;;;;;;;45.90;14.02;;;10.30;99.90;;;;;;5074264;28;20012;-77
2021/12/13 06:25:35;;;;;;;29.88;10.13;;;10.40;99.90;;;;;;5091686;28;20059;-77
2021/12/13 06:28:01;;;;;;;50.20;13.10;;;10.30;99.90;;;;;;5074003;28;20028;-77
2021/12/13 06:30:58;;;;;;;50.78;15.20;;;10.30;99.90;;;;;;5073361;28;20031;-77
2021/12/13 06:33:25;;;;;;;47.35;14.68;;;10.30;99.90;;;;;;5073731;28;20047;-77
2021/12/13 06:35:57;;;;;;;40.92;12.90;;;10.30;99.90;;;;;;5092113;28;20025;-77
2021/12/13 06:38:28;;;;;;;48.50;14.38;;;10.30;99.90;;;;;;5092088;28;20020;-77
2021/12/13 06:41:03;;;;;;;42.30;13.23;;;10.30;99.90;;;;;;5092342;28;20074;-77
2021/12/13 06:43:38;;;;;;;32.17;9.40;;;10.30;99.90;;;;;;5091446;28;20125;-77
2021/12/13 06:46:32;;;;;;;45.15;14.05;;;10.30;99.90;;;;;;5074033;28;20073;-78
2021/12/13 06:49:19;;;;;;;62.38;14.70;;;10.30;99.90;;;;;;5081872;28;20060;-78
2021/12/13 06:52:03;;;;;;;46.67;14.70;;;10.30;99.90;;;;;;5091558;28;20025;-78
2021/12/13 06:54:45;;;;;;;50.60;14.02;;;10.20;99.90;;;;;;5091413;28;20054;-78
2021/12/13 06:57:24;;;;;;;39.20;14.10;;;10.30;99.90;;;;;;5089543;28;20020;-78
2021/12/13 06:59:49;;;;;;;45.30;14.95;;;10.20;99.90;;;;;;5071586;28;20108;-78
2021/12/13 07:02:23;;;;;;;41.03;14.20;;;10.20;99.90;;;;;;5053987;28;20103;-79
2021/12/13 07:04:54;;;;;;;36.95;10.95;;;10.20;99.90;;;;;;5071709;28;20021;-78
2021/12/13 07:07:24;;;;;;;42.55;13.82;;;10.20;99.90;;;;;;5071729;28;20032;-78
2021/12/13 07:09:55;;;;;;;54.83;14.45;;;10.20;99.90;;;;;;5071782;28;20031;-78
2021/12/13 07:12:24;;;;;;;45.13;13.45;;;10.20;99.90;;;;;;5071820;28;20024;-77
2021/12/13 07:14:50;;;;;;;43.70;13.77;;;10.20;99.90;;;;;;5071552;28;20107;-78
2021/12/13 07:17:26;;;;;;;46.58;13.60;;;10.20;99.90;;;;;;5053571;28;20078;-78
2021/12/13 07:19:52;;;;;;;41.70;13.38;;;10.20;99.90;;;;;;5053982;28;20031;-78
2021/12/13 07:22:22;;;;;;;41.03;11.65;;;10.20;99.90;;;;;;5053601;28;20107;-77
2021/12/13 07:25:01;;;;;;;44.88;14.50;;;10.20;99.90;;;;;;5068360;28;20050;-77
2021/12/13 07:27:33;;;;;;;48.90;14.38;;;10.20;99.90;;;;;;5069069;28;20118;-78
2021/12/13 07:30:24;;;;;;;42.72;13.43;;;10.20;99.90;;;;;;5054721;28;20357;-77
2021/12/13 07:32:58;;;;;;;44.88;13.52;;;10.30;99.90;;;;;;5054765;28;20460;-77
2021/12/13 07:35:40;;;;;;;37.22;13.45;;;10.20;99.90;;;;;;5082805;28;20078;-78
2021/12/13 07:38:19;;;;;;;40.63;12.40;;;10.20;99.90;;;;;;5072183;28;20025;-75
2021/12/13 07:40:57;;;;;;;35.50;13.90;;;10.30;99.90;;;;;;5086293;28;20315;-75
2021/12/13 07:43:37;;;;;;;48.10;14.48;;;10.30;99.90;;;;;;5089844;28;20028;-75
2021/12/13 07:46:10;;;;;;;50.13;14.13;;;10.20;99.90;;;;;;5074761;28;20426;-76
2021/12/13 07:48:55;;;;;;;41.83;13.07;;;10.20;99.90;;;;;;5092343;28;20036;-75
2021/12/13 07:51:47;;;;;;;36.13;9.85;;;10.30;99.90;;;;;;5074051;28;20044;-74
2021/12/13 07:54:16;;;;;;;32.42;9.88;;;10.30;99.90;;;;;;5075667;28;20487;-75
2021/12/13 07:56:57;;;;;;;41.88;11.43;;;10.20;99.90;;;;;;5075887;28;20490;-75
2021/12/13 07:59:37;;;;;;;56.33;14.38;;;10.30;99.90;;;;;;5076022;28;20020;-75
2021/12/13 08:02:22;;;;;;;38.72;11.45;;;10.20;99.90;;;;;;5075886;28;20023;-75
2021/12/13 08:04:50;;;;;;;36.85;11.32;;;10.20;99.90;;;;;;5075595;28;20325;-75
2021/12/13 08:07:30;;;;;;;45.15;12.43;;;10.20;99.90;;;;;;5094406;28;20103;-75
2021/12/13 08:10:06;;;;;;;26.38;9.55;;;10.30;99.90;;;;;;5096484;28;20024;-75
2021/12/13 08:12:38;;;;;;;44.05;13.18;;;10.30;99.90;;;;;;5093999;28;20028;-75
2021/12/13 08:15:23;;;;;;;37.67;12.02;;;10.20;99.90;;;;;;5094595;28;20379;-75
2021/12/13 08:17:54;;;;;;;41.63;13.50;;;10.20;99.90;;;;;;5075764;28;20354;-75
2021/12/13 08:20:36;;;;;;;40.70;12.45;;;10.20;99.90;;;;;;5076206;28;20448;-75
2021/12/13 08:23:04;;;;;;;35.92;11.23;;;10.20;99.90;;;;;;5094321;28;20058;-75
2021/12/13 08:25:38;;;;;;;29.08;11.13;;;10.20;99.90;;;;;;5093603;28;20051;-75
2021/12/13 08:28:17;;;;;;;42.55;12.77;;;10.30;99.90;;;;;;5093914;28;20024;-75
2021/12/13 08:30:45;;;;;;;28.65;11.88;;;10.20;99.90;;;;;;5093617;28;20027;-76
2021/12/13 08:33:16;;;;;;;35.25;12.52;;;10.20;99.90;;;;;;5094007;28;20023;-77
2021/12/13 08:35:50;;;;;;;35.72;11.68;;;10.20;99.90;;;;;;5093633;28;20107;-74
2021/12/13 08:38:36;;;;;;;40.50;12.80;;;10.20;99.90;;;;;;5093915;28;20440;-74
2021/12/13 08:41:15;;;;;;;37.33;11.73;;;10.20;99.90;;;;;;5093628;28;20024;-75
2021/12/13 08:43:44;;;;;;;35.80;12.15;;;10.20;99.90;;;;;;5075169;28;20031;-75
2021/12/13 08:46:12;;;;;;;33.78;12.05;;;10.30;99.90;;;;;;5093866;28;20028;-75
2021/12/13 08:48:48;;;;;;;26.98;8.68;;;10.30;99.90;;;;;;5093315;28;20024;-75
2021/12/13 08:51:25;;;;;;;36.10;11.25;;;10.30;99.90;;;;;;5075611;28;20357;-75
2021/12/13 08:54:03;;;;;;;38.72;12.05;;;10.30;99.90;;;;;;5093120;28;20460;-75
2021/12/13 08:56:33;;;;;;;29.92;9.90;;;10.30;99.90;;;;;;5093656;28;20030;-74
2021/12/13 08:59:08;;;;;;;27.83;8.48;;;10.30;99.90;;;;;;5093652;28;20020;-75
2021/12/13 09:01:45;;;;;;;23.85;8.75;;;10.40;99.90;;;;;;5074831;28;20047;-75
2021/12/13 09:04:25;;;;;;;37.22;11.20;;;10.40;99.90;;;;;;5093251;28;20074;-74
2021/12/13 09:06:54;;;;;;;34.55;10.73;;;10.30;99.90;;;;;;5092426;28;20433;-75
2021/12/13 09:09:21;;;;;;;29.90;9.40;;;10.40;99.90;;;;;;5093360;28;20030;-75
2021/12/13 09:11:59;;;;;;;38.25;11.45;;;10.30;99.90;;;;;;5092927;28;20407;-76
2021/12/13 09:14:38;;;;;;;34.70;11.35;;;10.40;99.90;;;;;;5074632;28;20028;-76
2021/12/13 09:17:32;;;;;;;25.40;9.55;;;10.40;99.90;;;;;;5075008;28;20511;-76
2021/12/13 09:20:18;;;;;;;28.55;10.70;;;10.30;99.90;;;;;;5092998;28;20149;-76
2021/12/13 09:22:51;;;;;;;52.65;14.60;;;10.30;99.90;;;;;;5092487;28;20073;-75
2021/12/13 09:25:26;;;;;;;32.53;13.05;;;10.30;99.90;;;;;;5074819;28;20036;-75
2021/12/13 09:28:01;;;;;;;30.90;10.68;;;10.30;99.90;;;;;;5074291;28;20107;-75
2021/12/13 09:30:48;;;;;;;29.35;10.23;;;10.30;99.90;;;;;;5074754;28;20024;-75
2021/12/13 09:33:30;;;;;;;32.38;11.00;;;10.30;99.90;;;;;;5092855;28;20182;-75
2021/12/13 09:35:59;;;;;;;28.83;10.50;;;10.40;99.90;;;;;;5092481;28;20024;-75
2021/12/13 09:38:42;;;;;;;28.20;10.10;;;10.40;99.90;;;;;;5092732;28;20460;-75
2021/12/13 09:41:31;;;;;;;29.95;11.52;;;10.40;99.90;;;;;;5092397;28;20027;-75
2021/12/13 09:44:09;;;;;;;29.00;9.98;;;10.40;99.90;;;;;;5087532;28;20045;-75
2021/12/13 09:47:09;;;;;;;24.10;8.63;;;10.40;99.90;;;;;;5053936;28;20021;-75
2021/12/13 09:49:38;;;;;;;27.42;10.40;;;10.40;99.90;;;;;;4990285;28;20562;-75
2021/12/13 09:52:06;;;;;;;21.98;7.65;;;10.50;99.90;;;;;;5041847;28;20041;-75
2021/12/13 09:54:41;;;;;;;27.35;8.43;;;10.50;99.90;;;;;;5072265;28;20032;-75
2021/12/13 09:57:14;;;;;;;31.73;11.20;;;10.50;99.90;;;;;;5054128;28;20461;-76
2021/12/13 09:59:44;;;;;;;26.95;10.18;;;10.50;99.90;;;;;;5071550;28;20380;-76
2021/12/13 10:02:19;;;;;;;29.38;10.00;;;10.50;99.90;;;;;;5072484;28;20025;-75
2021/12/13 10:04:46;;;;;;;30.30;10.02;;;10.50;99.90;;;;;;5053279;28;20510;-75
2021/12/13 10:07:16;;;;;;;28.02;9.90;;;10.50;99.90;;;;;;5054118;28;20021;-75
2021/12/13 10:09:52;;;;;;;24.60;10.02;;;10.50;99.90;;;;;;5071682;28;20025;-76
2021/12/13 10:12:34;;;;;;;26.23;8.80;;;10.50;99.90;;;;;;5072076;28;20028;-76
2021/12/13 10:15:36;;;;;;;24.10;9.93;;;10.50;99.90;;;;;;5071603;28;20025;-76
2021/12/13 10:18:13;;;;;;;24.55;8.50;;;10.50;99.90;;;;;;5050667;28;20118;-76
2021/12/13 10:20:46;;;;;;;25.90;9.70;;;10.50;99.90;;;;;;5071783;28;20044;-76
2021/12/13 10:23:15;;;;;;;27.88;8.38;;;10.50;99.90;;;;;;5053563;28;20111;-76
2021/12/13 10:25:46;;;;;;;21.20;8.00;;;10.50;99.90;;;;;;5071344;28;20031;-76
2021/12/13 10:28:20;;;;;;;19.52;9.23;;;10.50;99.90;;;;;;5072146;28;20108;-75
2021/12/13 10:30:57;;;;;;;26.40;8.45;;;10.50;99.90;;;;;;5071483;28;20024;-76
2021/12/13 10:33:24;;;;;;;28.02;9.20;;;10.60;99.90;;;;;;5054094;28;20084;-75
2021/12/13 10:35:52;;;;;;;25.35;7.38;;;10.60;99.90;;;;;;5071181;28;20467;-76
2021/12/13 10:38:28;;;;;;;23.95;8.98;;;10.60;99.90;;;;;;5071840;28;20078;-75
2021/12/13 10:41:03;;;;;;;28.05;9.50;;;10.60;99.90;;;;;;5053377;28;20051;-75
2021/12/13 10:43:42;;;;;;;17.45;6.80;;;10.60;99.90;;;;;;5071713;28;20027;-76
2021/12/13 10:46:15;;;;;;;23.23;9.38;;;10.70;99.90;;;;;;5071430;28;20392;-76
2021/12/13 10:48:46;;;;;;;27.85;8.82;;;10.70;99.90;;;;;;5053286;28;20461;-76
2021/12/13 10:51:16;;;;;;;21.03;8.53;;;10.70;99.90;;;;;;5053925;28;20024;-76
2021/12/13 10:53:44;;;;;;;21.10;7.47;;;10.70;99.90;;;;;;5071007;28;20429;-74
2021/12/13 10:56:14;;;;;;;22.27;8.15;;;10.70;99.90;;;;;;5053948;28;20380;-75
2021/12/13 10:58:44;;;;;;;22.08;8.27;;;10.70;99.90;;;;;;5071301;28;20020;-75
2021/12/13 11:01:17;;;;;;;21.42;8.73;;;10.80;99.90;;;;;;5071361;28;20021;-74
2021/12/13 11:03:44;;;;;;;19.67;7.60;;;10.70;99.90;;;;;;5055445;28;20376;-74
2021/12/13 11:06:12;;;;;;;21.73;8.98;;;10.70;99.90;;;;;;5053628;28;20114;-77
2021/12/13 11:08:41;;;;;;;28.00;8.95;;;10.70;99.90;;;;;;5055447;28;20068;-74
2021/12/13 11:11:17;;;;;;;22.77;8.18;;;10.80;99.90;;;;;;5055160;28;20071;-77
2021/12/13 11:13:44;;;;;;;27.27;9.40;;;10.80;99.90;;;;;;5054830;28;20013;-74
2021/12/13 11:16:18;;;;;;;17.27;7.50;;;10.70;99.90;;;;;;5055042;28;20025;-74
2021/12/13 11:18:45;;;;;;;22.40;8.63;;;10.70;99.90;;;;;;5053489;28;20025;-75
2021/12/13 11:21:27;;;;;;;19.35;8.23;;;10.70;99.90;;;;;;5053796;28;20017;-77
2021/12/13 11:23:56;;;;;;;18.77;7.78;;;10.70;99.90;;;;;;5054590;28;20032;-74
2021/12/13 11:26:32;;;;;;;17.83;6.78;;;10.70;99.90;;;;;;5053511;28;20028;-77
2021/12/13 11:28:59;;;;;;;20.98;6.57;;;10.80;99.90;;;;;;5054725;28;20066;-74
2021/12/13 11:31:30;;;;;;;18.02;7.38;;;10.80;99.90;;;;;;5053857;28;20021;-77
2021/12/13 11:34:03;;;;;;;20.67;8.05;;;10.80;99.90;;;;;;5053181;28;20115;-77
2021/12/13 11:36:49;;;;;;;18.35;7.18;;;10.80;99.90;;;;;;5053267;28;20029;-74
2021/12/13 11:39:46;;;;;;;19.85;8.18;;;10.80;99.90;;;;;;5054971;28;20024;-77
2021/12/13 11:42:33;;;;;;;17.15;7.57;;;10.80;99.90;;;;;;5054732;28;20044;-76
2021/12/13 11:45:34;;;;;;;19.83;7.35;;;10.80;99.90;;;;;;5052912;28;20482;-77
2021/12/13 11:48:19;;;;;;;19.08;8.07;;;10.80;99.90;;;;;;5054118;28;20104;-76
2021/12/13 11:51:06;;;;;;;22.75;7.97;;;10.80;99.90;;;;;;5052532;28;20358;-77
2021/12/13 11:54:09;;;;;;;21.30;8.18;;;10.80;99.90;;;;;;5054344;28;20481;-76
2021/12/13 11:57:11;;;;;;;21.02;7.78;;;10.80;99.90;;;;;;5054644;28;20107;-77
2021/12/13 12:00:11;;;;;;;21.35;9.02;;;10.80;99.90;;;;;;5054498;28;20473;-76
2021/12/13 12:02:48;;;;;;;14.82;6.65;;;10.70;99.90;;;;;;5054426;28;20182;-76
2021/12/13 12:06:02;;;;;;;17.25;7.65;;;10.70;99.90;;;;;;5057253;28;20418;-77
2021/12/13 12:09:00;;;;;;;14.52;6.07;;;10.70;99.90;;;;;;5001840;28;20131;-76
2021/12/13 12:11:34;;;;;;;15.90;7.45;;;10.70;99.90;;;;;;5074047;28;20039;-74
2021/12/13 12:14:09;;;;;;;15.95;6.78;;;10.70;99.90;;;;;;5055069;28;20021;-74
2021/12/13 12:16:42;;;;;;;22.60;8.07;;;10.70;99.90;;;;;;5056044;28;20028;-75
2021/12/13 12:19:12;;;;;;;19.48;7.57;;;10.70;99.90;;;;;;5055513;28;20094;-74
2021/12/13 12:21:38;;;;;;;18.30;6.65;;;10.70;99.90;;;;;;5073620;28;20477;-74
2021/12/13 12:24:27;;;;;;;15.98;6.50;;;10.70;99.90;;;;;;5055278;28;20032;-74
2021/12/13 12:26:58;;;;;;;14.90;6.60;;;10.80;99.90;;;;;;5055413;28;20021;-74
2021/12/13 12:29:39;;;;;;;16.50;7.20;;;10.80;99.90;;;;;;5074112;28;20099;-75
2021/12/13 12:32:15;;;;;;;15.07;6.93;;;10.80;99.90;;;;;;5073242;28;20024;-74
2021/12/13 12:34:58;;;;;;;20.02;7.72;;;10.90;99.90;;;;;;5073675;28;20025;-75
2021/12/13 12:37:34;;;;;;;13.35;5.25;;;10.90;99.90;;;;;;5073536;28;20019;-74
2021/12/13 12:40:08;;;;;;;12.27;5.88;;;10.90;99.90;;;;;;5054877;28;20043;-75
2021/12/13 12:42:41;;;;;;;17.73;6.97;;;10.90;99.90;;;;;;5055664;28;20070;-74
2021/12/13 12:45:20;;;;;;;16.88;6.90;;;10.90;99.90;;;;;;5072715;28;20037;-74
2021/12/13 12:47:46;;;;;;;18.90;6.95;;;10.80;99.90;;;;;;5055618;28;20032;-75
2021/12/13 12:50:26;;;;;;;17.58;6.75;;;10.80;99.90;;;;;;5072723;28;20031;-74
2021/12/13 12:52:55;;;;;;;16.15;7.38;;;10.80;99.90;;;;;;5054547;28;20041;-75
2021/12/13 12:55:31;;;;;;;13.23;6.38;;;10.80;99.90;;;;;;5054978;28;20415;-75
2021/12/13 12:57:58;;;;;;;11.38;5.43;;;10.90;99.90;;;;;;5073085;28;20468;-75
2021/12/13 13:00:28;;;;;;;11.00;5.20;;;10.90;99.90;;;;;;5072721;28;20427;-75
2021/12/13 13:02:54;;;;;;;13.00;6.10;;;10.90;99.90;;;;;;5072471;28;20025;-75
2021/12/13 13:05:22;;;;;;;13.50;6.18;;;10.90;99.90;;;;;;5072732;28;20053;-75
2021/12/13 13:07:52;;;;;;;12.60;6.00;;;10.90;99.90;;;;;;5054837;28;20021;-75
2021/12/13 13:13:00;;;;;;;14.27;6.53;;;10.90;99.90;;;;;;5072757;28;20115;-75
2021/12/13 13:15:33;;;;;;;13.07;5.85;;;10.90;99.90;;;;;;5073253;28;20060;-76
2021/12/13 13:18:03;;;;;;;16.73;6.15;;;10.90;99.90;;;;;;5072533;28;20020;-75
2021/12/13 13:20:40;;;;;;;13.07;5.18;;;10.90;99.90;;;;;;5072678;28;20021;-75